Buoy 16575

sailwx.info

Track history (hours):
 
Tides and Currents Weather Stations Pressure Air Temp Water Temp Dewpoint Dewpoint Depression Visibility Wind Speed Wind Dir Waves Ship Positions

Drifting buoy 16575

Last reported at 2014-Oct-23 04:00 UTC. Time now 2014-Oct-23 05:55 UTC.
Position S 28°35' E 058°55'.

Barometer 1023.7 mb
Water temperature 21.8 ° C

Date/timePositionNaut miles runAvg speedWind from/ knotsBaromVisibWave heightAir tempDewpointWater temp
2014-Oct-23 04:00S 28°35' E 058°55'0 0.2 1023.7 21.8
2014-Oct-23 02:00S 28°35' E 058°55'1 0.6 1022.9 21.8
2014-Oct-23 01:00S 28°36' E 058°56'0 0.2 1022.0 21.8
2014-Oct-23 00:00S 28°36' E 058°56'1 1.1 1021.5 21.8
2014-Oct-22 23:00S 28°36' E 058°57'0 0.1 1021.7 21.8
2014-Oct-22 22:00S 28°36' E 058°57'1 1.0 1021.7 21.8
2014-Oct-22 21:00S 28°37' E 058°58'1 0.7 1021.7 21.9
2014-Oct-22 19:00S 28°38' E 058°58'1 0.6 1022.3 22.0
2014-Oct-22 17:00S 28°39' E 058°58'2 0.6 1022.2 22.2
2014-Oct-22 14:00S 28°40' E 058°57'1 1.1 1018.7 22.3
2014-Oct-22 13:00S 28°41' E 058°56'2 0.9 1017.6 22.3
2014-Oct-22 11:00S 28°41' E 058°54'0 0.0 1009.5 22.7
2014-Oct-22 10:00S 28°41' E 058°54'0 0.0 1009.1 22.7
2014-Oct-22 09:00S 28°41' E 058°54'2 1.8 1015.8 22.5
2014-Oct-22 08:00S 28°41' E 058°52'0 0.2 1014.7 22.2
2014-Oct-22 06:00S 28°40' E 058°52'1 1.0 1022.2 22.2
2014-Oct-22 05:00S 28°40' E 058°51'0 0.3 1029.9 21.9
2014-Oct-22 04:00S 28°40' E 058°51'1 0.6 1018.3 21.8
2014-Oct-22 03:00S 28°39' E 058°51'1 0.5 1026.3 21.8
2014-Oct-22 02:00S 28°39' E 058°50'0 0.2 1022.4 21.7
2014-Oct-22 01:00S 28°39' E 058°50'0 0.3 1017.6 21.7
2014-Oct-22 00:00S 28°39' E 058°50'0 0.1 1018.1 21.7
2014-Oct-21 23:00S 28°39' E 058°50'0 0.0 1018.6 21.8
2014-Oct-21 22:00S 28°39' E 058°50'1 0.6 1018.2 21.8
2014-Oct-21 21:00S 28°40' E 058°49'1 0.8 1018.6 21.8
2014-Oct-21 20:00S 28°40' E 058°48'1 0.6 1018.6 21.8
2014-Oct-21 19:00S 28°41' E 058°48'1 1.4 1018.8 21.8
2014-Oct-21 18:00S 28°41' E 058°46'0 0.2 1018.4 21.8
2014-Oct-21 17:00S 28°42' E 058°46'2 0.9 1018.3 21.8
2014-Oct-21 15:00S 28°43' E 058°45'1 0.6 1016.5 21.8
2014-Oct-21 14:00S 28°43' E 058°44'1 1.0 1016.1 21.8
2014-Oct-21 13:00S 28°43' E 058°43'2 1.9 1015.3 21.8
2014-Oct-21 12:00S 28°44' E 058°41'0 0.1 1016.4 21.8
2014-Oct-21 11:00S 28°44' E 058°41'5 1.8 1017.5 21.9
2014-Oct-21 08:00S 28°42' E 058°35'0 0.0 1013.8 21.9
2014-Oct-21 06:00S 28°42' E 058°35'2 2.0 1019.6 21.9
2014-Oct-21 05:00S 28°41' E 058°33'2 0.5 1015.3 21.8
2014-Oct-21 01:00S 28°40' E 058°31'1 1.4 1017.3 21.8
2014-Oct-21 00:00S 28°39' E 058°30'0 0.5 1017.4 21.8
2014-Oct-20 23:00S 28°39' E 058°30'1 0.6 1017.2 21.8
2014-Oct-20 21:00S 28°39' E 058°29'1 0.3 1017.9 21.8
2014-Oct-20 18:00S 28°38' E 058°28'0 0.4 1018.3 21.8
2014-Oct-20 17:00S 28°38' E 058°28'2 1.6 1018.6 21.8
2014-Oct-20 16:00S 28°38' E 058°26'0 0.0 1018.2 21.8
2014-Oct-20 14:00S 28°38' E 058°26'1 0.9 1017.4 21.9
2014-Oct-20 13:00S 28°38' E 058°25'1 0.6 1016.5 21.9
2014-Oct-20 12:00S 28°37' E 058°25'2 0.8 1015.6 21.9
2014-Oct-20 10:00S 28°36' E 058°23'3 3.0 1016.4 21.9
2014-Oct-20 09:00S 28°33' E 058°22'1 0.2 1023.6 21.9
2014-Oct-20 05:00S 28°33' E 058°22'2 0.6 1020.5 21.9
2014-Oct-20 02:00S 28°31' E 058°22'0 0.4 1020.5 21.9
2014-Oct-20 01:00S 28°30' E 058°22'1 0.8 1020.3 21.9
2014-Oct-20 00:00S 28°30' E 058°22'1 0.9 1020.4 22.0
2014-Oct-19 23:00S 28°29' E 058°22'3 1.5 1020.7 22.0
2014-Oct-19 21:00S 28°26' E 058°22'0 0.0 1021.6 22.0
2014-Oct-19 20:00S 28°26' E 058°22'0 0.2 1021.9 22.0
2014-Oct-19 19:00S 28°26' E 058°22'1 0.6 1022.1 22.1
2014-Oct-19 18:00S 28°25' E 058°22'2 2.2 1022.4 22.0
2014-Oct-19 17:00S 28°23' E 058°23'0 0.0 1022.5 22.0
2014-Oct-19 16:00S 28°23' E 058°23'0 0.1 1022.0 22.0
2014-Oct-19 14:00S 28°23' E 058°24'1 0.6 1021.0 22.1
2014-Oct-19 12:00S 28°22' E 058°25'0 0.2 1020.3 22.1
2014-Oct-19 10:00S 28°22' E 058°25'1 0.7 1023.5 22.1
2014-Oct-19 08:00S 28°21' E 058°26'0 0.0 1023.5 22.0
2014-Oct-19 06:00S 28°21' E 058°26'0 0.3 1024.3 22.0
2014-Oct-19 05:00S 28°21' E 058°26'0 0.5 1022.6 22.0
2014-Oct-19 04:00S 28°20' E 058°27'1 1.4 1023.5 22.0
2014-Oct-19 03:00S 28°20' E 058°28'1 0.9 1023.2 21.9
2014-Oct-19 02:00S 28°19' E 058°29'1 0.6 1022.8 21.9
2014-Oct-19 01:00S 28°18' E 058°29'1 0.6 1022.6 21.9
2014-Oct-18 23:00S 28°19' E 058°30'2 2.0 1022.9 21.9
2014-Oct-18 22:00S 28°19' E 058°32'0 0.0 1023.2 21.9
2014-Oct-18 21:00S 28°19' E 058°32'1 0.5 1023.4 21.9
2014-Oct-18 19:00S 28°19' E 058°33'1 0.6 1021.9 21.9
2014-Oct-18 18:00S 28°19' E 058°34'1 0.8 1022.0 21.9
2014-Oct-18 17:00S 28°19' E 058°35'2 0.9 1022.1 22.0
2014-Oct-18 15:00S 28°20' E 058°37'1 0.7 1020.9 22.0
2014-Oct-18 14:00S 28°21' E 058°37'0 0.4 1019.7 22.0
2014-Oct-18 13:00S 28°21' E 058°37'3 3.0 1019.0 22.1
2014-Oct-18 12:00S 28°24' E 058°38'0 0.0 1018.5 22.1
2014-Oct-18 11:00S 28°24' E 058°38'0 0.0 1020.1 22.1
2014-Oct-18 10:00S 28°24' E 058°38'1 0.3 1020.2 22.1
2014-Oct-18 08:00S 28°24' E 058°37'0 0.1 1024.3 22.1
2014-Oct-18 06:00S 28°24' E 058°37'0 0.1 1019.2 22.0
2014-Oct-18 05:00S 28°24' E 058°37'0 0.1 1021.8 22.1
2014-Oct-18 02:00S 28°24' E 058°37'1 0.6 1020.3 22.0
2014-Oct-18 01:00S 28°24' E 058°38'1 0.5 1019.5 22.0
2014-Oct-17 22:00S 28°25' E 058°39'1 0.5 1019.9 22.1
2014-Oct-17 20:00S 28°25' E 058°40'1 0.6 1020.1 22.1
2014-Oct-17 19:00S 28°26' E 058°40'1 1.3 1019.5 22.1
2014-Oct-17 18:00S 28°27' E 058°41'0 0.5 1019.0 22.0
2014-Oct-17 17:00S 28°27' E 058°41'2 1.0 1018.4 22.0
2014-Oct-17 15:00S 28°29' E 058°42'1 0.7 1015.6 22.0
2014-Oct-17 14:00S 28°30' E 058°42'5 1.3 1014.4 22.1
2014-Oct-17 10:00S 28°35' E 058°41'2 1.2 1013.4 22.2
2014-Oct-17 08:00S 28°36' E 058°39'0 0.1 1017.7 21.9
2014-Oct-17 06:00S 28°37' E 058°39'1 1.4 1019.4 21.9
2014-Oct-17 05:00S 28°37' E 058°38'0 0.4 1024.3 21.9
2014-Oct-17 04:00S 28°37' E 058°38'2 0.9 1015.7 21.9
2014-Oct-17 02:00S 28°38' E 058°36'1 1.2 1014.1 21.9
2014-Oct-17 01:00S 28°37' E 058°35'0 0.0 1013.2 21.9
2014-Oct-17 00:00S 28°37' E 058°35'0 0.0 1012.0 21.9
2014-Oct-16 22:00S 28°37' E 058°35'1 0.3 1012.5 22.0
2014-Oct-16 19:00S 28°37' E 058°36'1 0.6 1013.5 22.0
2014-Oct-16 18:00S 28°38' E 058°35'8 1.3 1013.8 22.1
2014-Oct-16 12:00S 28°43' E 058°29'23 1.3 1010.7 22.1
2014-Oct-15 18:00S 28°31' E 058°06'1 1.1 1013.9 22.3
2014-Oct-15 17:00S 28°30' E 058°05'6 1.6 1013.8 22.3
2014-Oct-15 13:00S 28°25' E 058°01'3 1.4 1011.8 22.3
2014-Oct-15 11:00S 28°23' E 057°59'2 1.6 1006.0 22.3
2014-Oct-15 10:00S 28°22' E 057°58'4 4.2 1015.5 22.4
2014-Oct-15 09:00S 28°19' E 057°54'0 0.0 1017.6 22.4
2014-Oct-15 06:00S 28°19' E 057°55'3 1.3 1017.8 22.3
2014-Oct-15 04:00S 28°17' E 057°52'2 1.0 1019.4 22.3
2014-Oct-15 02:00S 28°15' E 057°51'2 2.1 1015.8 22.3
2014-Oct-15 01:00S 28°14' E 057°50'0 0.1 1014.9 22.3
2014-Oct-15 00:00S 28°14' E 057°50'4 1.0 1015.0 22.4
2014-Oct-14 20:00S 28°10' E 057°47'5 1.6 1016.2 22.4
2014-Oct-14 17:00S 28°07' E 057°43'0 0.0 1016.2 22.4
2014-Oct-14 15:00S 28°07' E 057°43'4 1.9 1014.6 22.5
2014-Oct-14 13:00S 28°04' E 057°40'1 0.3 1011.6 22.6
2014-Oct-14 11:00S 28°04' E 057°40'2 1.8 1013.7 22.6
2014-Oct-14 10:00S 28°02' E 057°39'3 0.7 1020.5 22.5
2014-Oct-14 06:00S 27°60' E 057°38'1 1.3 1019.3 22.3
2014-Oct-14 05:00S 27°59' E 057°37'0 0.0 1021.0 22.3
2014-Oct-14 04:00S 27°59' E 057°37'0 0.0 1024.4 22.3
2014-Oct-14 03:00S 27°59' E 057°37'2 1.8 1024.3 22.3
2014-Oct-14 02:00S 27°57' E 057°36'0 0.0 1018.8 22.3
2014-Oct-14 01:00S 27°57' E 057°36'1 0.8 1017.5 22.3
2014-Oct-14 00:00S 27°56' E 057°36'0 0.1 1017.7 22.3
2014-Oct-13 23:00S 27°56' E 057°36'0 0.4 1018.5 22.3
2014-Oct-13 22:00S 27°56' E 057°36'1 0.8 1018.9 22.3
2014-Oct-13 21:00S 27°55' E 057°36'0 0.2 1019.3 22.3
2014-Oct-13 19:00S 27°55' E 057°37'0 0.2 1019.8 22.3
2014-Oct-13 18:00S 27°55' E 057°37'0 0.2 1020.6 22.3
2014-Oct-13 17:00S 27°55' E 057°37'1 0.2 1020.3 22.3
2014-Oct-13 14:00S 27°55' E 057°36'0 0.0 1018.4 22.3
2014-Oct-13 13:00S 27°55' E 057°36'0 0.4 1020.5 22.3
2014-Oct-13 12:00S 27°55' E 057°36'1 1.3 1019.4 22.3
2014-Oct-13 11:00S 27°53' E 057°36'0 0.0 1017.8 22.2
2014-Oct-13 10:00S 27°53' E 057°36'0 0.1 1019.7 22.2
2014-Oct-13 09:00S 27°54' E 057°37'3 0.8 1019.5 22.2
2014-Oct-13 06:00S 27°52' E 057°39'1 0.5 1023.8 22.0
2014-Oct-13 05:00S 27°52' E 057°39'   1022.7 22.0
Track history (hours):
 
Tides and Currents Weather Stations Pressure Air Temp Water Temp Dewpoint Dewpoint Depression Visibility Wind Speed Wind Dir Waves Ship Positions

Drifting buoy 16575

Last reported at 2014-Oct-23 04:00 UTC. Time now 2014-Oct-23 05:55 UTC.
Position S 28°35' E 058°55'.

Barometer 1023.7 mb
Water temperature 21.8 ° C

Date/timePositionNaut miles runAvg speedWind from/ knotsBaromVisibWave heightAir tempDewpointWater temp
2014-Oct-23 04:00S 28°35' E 058°55'0 0.2 1023.7 21.8
2014-Oct-23 02:00S 28°35' E 058°55'1 0.6 1022.9 21.8
2014-Oct-23 01:00S 28°36' E 058°56'0 0.2 1022.0 21.8
2014-Oct-23 00:00S 28°36' E 058°56'1 1.1 1021.5 21.8
2014-Oct-22 23:00S 28°36' E 058°57'0 0.1 1021.7 21.8
2014-Oct-22 22:00S 28°36' E 058°57'1 1.0 1021.7 21.8
2014-Oct-22 21:00S 28°37' E 058°58'1 0.7 1021.7 21.9
2014-Oct-22 19:00S 28°38' E 058°58'1 0.6 1022.3 22.0
2014-Oct-22 17:00S 28°39' E 058°58'2 0.6 1022.2 22.2
2014-Oct-22 14:00S 28°40' E 058°57'1 1.1 1018.7 22.3
2014-Oct-22 13:00S 28°41' E 058°56'2 0.9 1017.6 22.3
2014-Oct-22 11:00S 28°41' E 058°54'0 0.0 1009.5 22.7
2014-Oct-22 10:00S 28°41' E 058°54'0 0.0 1009.1 22.7
2014-Oct-22 09:00S 28°41' E 058°54'2 1.8 1015.8 22.5
2014-Oct-22 08:00S 28°41' E 058°52'0 0.2 1014.7 22.2
2014-Oct-22 06:00S 28°40' E 058°52'1 1.0 1022.2 22.2
2014-Oct-22 05:00S 28°40' E 058°51'0 0.3 1029.9 21.9
2014-Oct-22 04:00S 28°40' E 058°51'1 0.6 1018.3 21.8
2014-Oct-22 03:00S 28°39' E 058°51'1 0.5 1026.3 21.8
2014-Oct-22 02:00S 28°39' E 058°50'0 0.2 1022.4 21.7
2014-Oct-22 01:00S 28°39' E 058°50'0 0.3 1017.6 21.7
2014-Oct-22 00:00S 28°39' E 058°50'0 0.1 1018.1 21.7
2014-Oct-21 23:00S 28°39' E 058°50'0 0.0 1018.6 21.8
2014-Oct-21 22:00S 28°39' E 058°50'1 0.6 1018.2 21.8
2014-Oct-21 21:00S 28°40' E 058°49'1 0.8 1018.6 21.8
2014-Oct-21 20:00S 28°40' E 058°48'1 0.6 1018.6 21.8
2014-Oct-21 19:00S 28°41' E 058°48'1 1.4 1018.8 21.8
2014-Oct-21 18:00S 28°41' E 058°46'0 0.2 1018.4 21.8
2014-Oct-21 17:00S 28°42' E 058°46'2 0.9 1018.3 21.8
2014-Oct-21 15:00S 28°43' E 058°45'1 0.6 1016.5 21.8
2014-Oct-21 14:00S 28°43' E 058°44'1 1.0 1016.1 21.8
2014-Oct-21 13:00S 28°43' E 058°43'2 1.9 1015.3 21.8
2014-Oct-21 12:00S 28°44' E 058°41'0 0.1 1016.4 21.8
2014-Oct-21 11:00S 28°44' E 058°41'5 1.8 1017.5 21.9
2014-Oct-21 08:00S 28°42' E 058°35'0 0.0 1013.8 21.9
2014-Oct-21 06:00S 28°42' E 058°35'2 2.0 1019.6 21.9
2014-Oct-21 05:00S 28°41' E 058°33'2 0.5 1015.3 21.8
2014-Oct-21 01:00S 28°40' E 058°31'1 1.4 1017.3 21.8
2014-Oct-21 00:00S 28°39' E 058°30'0 0.5 1017.4 21.8
2014-Oct-20 23:00S 28°39' E 058°30'1 0.6 1017.2 21.8
2014-Oct-20 21:00S 28°39' E 058°29'1 0.3 1017.9 21.8
2014-Oct-20 18:00S 28°38' E 058°28'0 0.4 1018.3 21.8
2014-Oct-20 17:00S 28°38' E 058°28'2 1.6 1018.6 21.8
2014-Oct-20 16:00S 28°38' E 058°26'0 0.0 1018.2 21.8
2014-Oct-20 14:00S 28°38' E 058°26'1 0.9 1017.4 21.9
2014-Oct-20 13:00S 28°38' E 058°25'1 0.6 1016.5 21.9
2014-Oct-20 12:00S 28°37' E 058°25'2 0.8 1015.6 21.9
2014-Oct-20 10:00S 28°36' E 058°23'3 3.0 1016.4 21.9
2014-Oct-20 09:00S 28°33' E 058°22'1 0.2 1023.6 21.9
2014-Oct-20 05:00S 28°33' E 058°22'2 0.6 1020.5 21.9
2014-Oct-20 02:00S 28°31' E 058°22'0 0.4 1020.5 21.9
2014-Oct-20 01:00S 28°30' E 058°22'1 0.8 1020.3 21.9
2014-Oct-20 00:00S 28°30' E 058°22'1 0.9 1020.4 22.0
2014-Oct-19 23:00S 28°29' E 058°22'3 1.5 1020.7 22.0
2014-Oct-19 21:00S 28°26' E 058°22'0 0.0 1021.6 22.0
2014-Oct-19 20:00S 28°26' E 058°22'0 0.2 1021.9 22.0
2014-Oct-19 19:00S 28°26' E 058°22'1 0.6 1022.1 22.1
2014-Oct-19 18:00S 28°25' E 058°22'2 2.2 1022.4 22.0
2014-Oct-19 17:00S 28°23' E 058°23'0 0.0 1022.5 22.0
2014-Oct-19 16:00S 28°23' E 058°23'0 0.1 1022.0 22.0
2014-Oct-19 14:00S 28°23' E 058°24'1 0.6 1021.0 22.1
2014-Oct-19 12:00S 28°22' E 058°25'0 0.2 1020.3 22.1
2014-Oct-19 10:00S 28°22' E 058°25'1 0.7 1023.5 22.1
2014-Oct-19 08:00S 28°21' E 058°26'0 0.0 1023.5 22.0
2014-Oct-19 06:00S 28°21' E 058°26'0 0.3 1024.3 22.0
2014-Oct-19 05:00S 28°21' E 058°26'0 0.5 1022.6 22.0
2014-Oct-19 04:00S 28°20' E 058°27'1 1.4 1023.5 22.0
2014-Oct-19 03:00S 28°20' E 058°28'1 0.9 1023.2 21.9
2014-Oct-19 02:00S 28°19' E 058°29'1 0.6 1022.8 21.9
2014-Oct-19 01:00S 28°18' E 058°29'1 0.6 1022.6 21.9
2014-Oct-18 23:00S 28°19' E 058°30'2 2.0 1022.9 21.9
2014-Oct-18 22:00S 28°19' E 058°32'0 0.0 1023.2 21.9
2014-Oct-18 21:00S 28°19' E 058°32'1 0.5 1023.4 21.9
2014-Oct-18 19:00S 28°19' E 058°33'1 0.6 1021.9 21.9
2014-Oct-18 18:00S 28°19' E 058°34'1 0.8 1022.0 21.9
2014-Oct-18 17:00S 28°19' E 058°35'2 0.9 1022.1 22.0
2014-Oct-18 15:00S 28°20' E 058°37'1 0.7 1020.9 22.0
2014-Oct-18 14:00S 28°21' E 058°37'0 0.4 1019.7 22.0
2014-Oct-18 13:00S 28°21' E 058°37'3 3.0 1019.0 22.1
2014-Oct-18 12:00S 28°24' E 058°38'0 0.0 1018.5 22.1
2014-Oct-18 11:00S 28°24' E 058°38'0 0.0 1020.1 22.1
2014-Oct-18 10:00S 28°24' E 058°38'1 0.3 1020.2 22.1
2014-Oct-18 08:00S 28°24' E 058°37'0 0.1 1024.3 22.1
2014-Oct-18 06:00S 28°24' E 058°37'0 0.1 1019.2 22.0
2014-Oct-18 05:00S 28°24' E 058°37'0 0.1 1021.8 22.1
2014-Oct-18 02:00S 28°24' E 058°37'1 0.6 1020.3 22.0
2014-Oct-18 01:00S 28°24' E 058°38'1 0.5 1019.5 22.0
2014-Oct-17 22:00S 28°25' E 058°39'1 0.5 1019.9 22.1
2014-Oct-17 20:00S 28°25' E 058°40'1 0.6 1020.1 22.1
2014-Oct-17 19:00S 28°26' E 058°40'1 1.3 1019.5 22.1
2014-Oct-17 18:00S 28°27' E 058°41'0 0.5 1019.0 22.0
2014-Oct-17 17:00S 28°27' E 058°41'2 1.0 1018.4 22.0
2014-Oct-17 15:00S 28°29' E 058°42'1 0.7 1015.6 22.0
2014-Oct-17 14:00S 28°30' E 058°42'5 1.3 1014.4 22.1
2014-Oct-17 10:00S 28°35' E 058°41'2 1.2 1013.4 22.2
2014-Oct-17 08:00S 28°36' E 058°39'0 0.1 1017.7 21.9
2014-Oct-17 06:00S 28°37' E 058°39'1 1.4 1019.4 21.9
2014-Oct-17 05:00S 28°37' E 058°38'0 0.4 1024.3 21.9
2014-Oct-17 04:00S 28°37' E 058°38'2 0.9 1015.7 21.9
2014-Oct-17 02:00S 28°38' E 058°36'1 1.2 1014.1 21.9
2014-Oct-17 01:00S 28°37' E 058°35'0 0.0 1013.2 21.9
2014-Oct-17 00:00S 28°37' E 058°35'0 0.0 1012.0 21.9
2014-Oct-16 22:00S 28°37' E 058°35'1 0.3 1012.5 22.0
2014-Oct-16 19:00S 28°37' E 058°36'1 0.6 1013.5 22.0
2014-Oct-16 18:00S 28°38' E 058°35'8 1.3 1013.8 22.1
2014-Oct-16 12:00S 28°43' E 058°29'23 1.3 1010.7 22.1
2014-Oct-15 18:00S 28°31' E 058°06'1 1.1 1013.9 22.3
2014-Oct-15 17:00S 28°30' E 058°05'6 1.6 1013.8 22.3
2014-Oct-15 13:00S 28°25' E 058°01'3 1.4 1011.8 22.3
2014-Oct-15 11:00S 28°23' E 057°59'2 1.6 1006.0 22.3
2014-Oct-15 10:00S 28°22' E 057°58'4 4.2 1015.5 22.4
2014-Oct-15 09:00S 28°19' E 057°54'0 0.0 1017.6 22.4
2014-Oct-15 06:00S 28°19' E 057°55'3 1.3 1017.8 22.3
2014-Oct-15 04:00S 28°17' E 057°52'2 1.0 1019.4 22.3
2014-Oct-15 02:00S 28°15' E 057°51'2 2.1 1015.8 22.3
2014-Oct-15 01:00S 28°14' E 057°50'0 0.1 1014.9 22.3
2014-Oct-15 00:00S 28°14' E 057°50'4 1.0 1015.0 22.4
2014-Oct-14 20:00S 28°10' E 057°47'5 1.6 1016.2 22.4
2014-Oct-14 17:00S 28°07' E 057°43'0 0.0 1016.2 22.4
2014-Oct-14 15:00S 28°07' E 057°43'4 1.9 1014.6 22.5
2014-Oct-14 13:00S 28°04' E 057°40'1 0.3 1011.6 22.6
2014-Oct-14 11:00S 28°04' E 057°40'2 1.8 1013.7 22.6
2014-Oct-14 10:00S 28°02' E 057°39'3 0.7 1020.5 22.5
2014-Oct-14 06:00S 27°60' E 057°38'1 1.3 1019.3 22.3
2014-Oct-14 05:00S 27°59' E 057°37'0 0.0 1021.0 22.3
2014-Oct-14 04:00S 27°59' E 057°37'0 0.0 1024.4 22.3
2014-Oct-14 03:00S 27°59' E 057°37'2 1.8 1024.3 22.3
2014-Oct-14 02:00S 27°57' E 057°36'0 0.0 1018.8 22.3
2014-Oct-14 01:00S 27°57' E 057°36'1 0.8 1017.5 22.3
2014-Oct-14 00:00S 27°56' E 057°36'0 0.1 1017.7 22.3
2014-Oct-13 23:00S 27°56' E 057°36'0 0.4 1018.5 22.3
2014-Oct-13 22:00S 27°56' E 057°36'1 0.8 1018.9 22.3
2014-Oct-13 21:00S 27°55' E 057°36'0 0.2 1019.3 22.3
2014-Oct-13 19:00S 27°55' E 057°37'0 0.2 1019.8 22.3
2014-Oct-13 18:00S 27°55' E 057°37'0 0.2 1020.6 22.3
2014-Oct-13 17:00S 27°55' E 057°37'1 0.2 1020.3 22.3
2014-Oct-13 14:00S 27°55' E 057°36'0 0.0 1018.4 22.3
2014-Oct-13 13:00S 27°55' E 057°36'0 0.4 1020.5 22.3
2014-Oct-13 12:00S 27°55' E 057°36'1 1.3 1019.4 22.3
2014-Oct-13 11:00S 27°53' E 057°36'0 0.0 1017.8 22.2
2014-Oct-13 10:00S 27°53' E 057°36'0 0.1 1019.7 22.2
2014-Oct-13 09:00S 27°54' E 057°37'3 0.8 1019.5 22.2
2014-Oct-13 06:00S 27°52' E 057°39'1 0.5 1023.8 22.0
2014-Oct-13 05:00S 27°52' E 057°39'   1022.7 22.0

Dump ship's entire track history